createdAt,value
2017-12-10T00:03:33.649Z,10.30
2017-12-10T00:08:35.475Z,9.37
2017-12-10T00:13:37.338Z,9.90
2017-12-10T00:18:39.260Z,9.13
2017-12-10T00:23:41.182Z,10.00
2017-12-10T00:28:43.067Z,9.40
2017-12-10T00:33:45.023Z,9.67
2017-12-10T00:38:46.896Z,8.80
2017-12-10T00:43:48.815Z,9.53
2017-12-10T00:48:50.618Z,9.33
2017-12-10T00:53:52.576Z,9.10
2017-12-10T00:58:54.593Z,8.53
2017-12-10T01:03:57.054Z,9.80
2017-12-10T01:08:58.940Z,8.43
2017-12-10T01:14:00.805Z,9.00
2017-12-10T01:19:02.692Z,9.10
2017-12-10T01:24:04.558Z,8.13
2017-12-10T01:29:06.496Z,9.17
2017-12-10T01:34:08.363Z,11.07
2017-12-10T01:39:10.214Z,10.53
2017-12-10T01:44:12.062Z,10.00
2017-12-10T01:49:13.935Z,10.63
2017-12-10T01:54:15.939Z,9.93
2017-12-10T01:59:17.876Z,9.57
2017-12-10T02:04:19.717Z,9.13
2017-12-10T02:09:22.293Z,8.87
2017-12-10T02:14:24.140Z,9.00
2017-12-10T02:19:26.022Z,8.50
2017-12-10T02:24:27.827Z,7.90
2017-12-10T02:29:29.761Z,9.53
2017-12-10T02:34:31.545Z,8.23
2017-12-10T02:39:33.380Z,7.60
2017-12-10T02:44:35.354Z,7.77
2017-12-10T02:49:37.242Z,7.37
2017-12-10T02:54:39.884Z,7.83
2017-12-10T02:59:41.734Z,7.67
2017-12-10T03:04:43.697Z,8.03
2017-12-10T03:09:45.551Z,7.83
2017-12-10T03:14:47.336Z,7.90
2017-12-10T03:19:49.165Z,8.00
2017-12-10T03:24:51.722Z,7.80
2017-12-10T03:29:53.842Z,7.13
2017-12-10T03:34:55.654Z,7.83
2017-12-10T03:39:57.426Z,7.93
2017-12-10T03:44:59.235Z,7.83
2017-12-10T03:50:01.027Z,7.00
2017-12-10T03:55:03.877Z,6.83
2017-12-10T04:00:05.685Z,6.40
2017-12-10T04:05:07.520Z,7.20
2017-12-10T04:10:09.339Z,6.00
2017-12-10T04:15:11.193Z,6.60
2017-12-10T04:20:12.994Z,6.40
2017-12-10T04:25:14.844Z,6.07
2017-12-10T04:30:16.685Z,5.97
2017-12-10T04:35:18.554Z,5.77
2017-12-10T04:40:20.378Z,6.00
2017-12-10T04:45:22.199Z,6.43
2017-12-10T04:50:23.996Z,5.43
2017-12-10T04:55:25.915Z,5.20
2017-12-10T05:00:27.736Z,5.47
2017-12-10T05:05:30.278Z,6.53
2017-12-10T05:10:32.099Z,5.30
2017-12-10T05:15:33.881Z,5.20
2017-12-10T05:20:35.730Z,5.80
2017-12-10T05:25:37.531Z,5.20
2017-12-10T05:30:39.309Z,4.90
2017-12-10T05:35:41.129Z,4.90
2017-12-10T05:40:42.989Z,6.20
2017-12-10T05:45:44.805Z,4.63
2017-12-10T05:50:46.601Z,4.70
2017-12-10T05:55:48.455Z,4.50
2017-12-10T06:00:51.057Z,4.73
2017-12-10T06:05:52.855Z,3.90
2017-12-10T06:10:54.649Z,4.93
2017-12-10T06:15:56.414Z,4.50
2017-12-10T06:20:58.196Z,4.97
2017-12-10T06:26:00.069Z,5.57
2017-12-10T06:31:02.464Z,4.60
2017-12-10T06:36:04.526Z,4.63
2017-12-10T06:41:06.346Z,4.60
2017-12-10T06:46:08.141Z,4.90
2017-12-10T06:51:11.232Z,5.60
2017-12-10T06:56:15.518Z,4.77
2017-12-10T07:01:17.346Z,4.63
2017-12-10T07:06:20.178Z,4.87
2017-12-10T07:11:22.013Z,4.40
2017-12-10T07:16:25.120Z,4.03
2017-12-10T07:21:27.130Z,4.70
2017-12-10T07:26:29.456Z,3.87
2017-12-10T07:31:31.517Z,3.87
2017-12-10T07:36:33.836Z,3.90
2017-12-10T07:41:35.674Z,4.60
2017-12-10T07:46:37.478Z,4.70
2017-12-10T07:51:39.393Z,3.90
2017-12-10T07:56:41.200Z,4.20
2017-12-10T08:01:43.785Z,3.60
2017-12-10T08:06:45.627Z,4.10
2017-12-10T08:11:47.545Z,3.33
2017-12-10T08:16:49.354Z,3.80
2017-12-10T08:21:51.383Z,4.17
2017-12-10T08:26:53.202Z,3.60
2017-12-10T08:31:55.034Z,10.67
2017-12-10T08:36:57.586Z,3.43
2017-12-10T08:41:59.390Z,4.20
2017-12-10T08:47:01.577Z,4.13
2017-12-10T08:52:03.461Z,3.20
2017-12-10T08:57:06.230Z,2.97
2017-12-10T09:02:08.040Z,3.50
2017-12-10T09:07:09.856Z,2.63
2017-12-10T09:12:11.966Z,2.60
2017-12-10T09:17:13.790Z,2.90
2017-12-10T09:22:15.644Z,3.00
2017-12-10T09:27:17.434Z,2.63
2017-12-10T09:32:20.425Z,3.70
2017-12-10T09:37:23.027Z,2.53
2017-12-10T09:42:24.925Z,3.00
2017-12-10T09:47:26.707Z,2.57
2017-12-10T09:52:28.571Z,2.60
2017-12-10T09:57:31.022Z,2.60
2017-12-10T10:02:32.825Z,3.00
2017-12-10T10:07:34.609Z,3.17
2017-12-10T10:12:36.382Z,3.50
2017-12-10T10:17:39.184Z,3.43
2017-12-10T10:22:42.027Z,3.60
2017-12-10T10:27:43.829Z,3.40
2017-12-10T10:32:45.947Z,3.93
2017-12-10T10:37:47.774Z,4.00
2017-12-10T10:42:50.610Z,4.03
2017-12-10T10:47:52.370Z,3.90
2017-12-10T10:52:54.197Z,4.00
2017-12-10T10:57:56.059Z,3.93
2017-12-10T11:02:58.186Z,3.70
2017-12-10T11:07:59.970Z,3.80
2017-12-10T11:13:01.762Z,3.83
2017-12-10T11:18:03.617Z,4.37
2017-12-10T11:23:05.434Z,3.97
2017-12-10T11:28:07.225Z,4.77
2017-12-10T11:33:09.059Z,5.10
2017-12-10T11:38:10.847Z,4.77
2017-12-10T11:43:13.379Z,4.20
2017-12-10T11:48:15.899Z,3.40
2017-12-10T11:53:18.494Z,3.57
2017-12-10T11:58:20.411Z,3.57
2017-12-10T12:03:23.078Z,3.83
2017-12-10T12:08:26.080Z,3.03
2017-12-10T12:13:28.321Z,3.03
2017-12-10T12:18:30.966Z,3.10
2017-12-10T12:23:34.463Z,3.40
2017-12-10T12:28:36.277Z,3.20
2017-12-10T12:33:38.117Z,3.37
2017-12-10T12:38:39.899Z,3.40
2017-12-10T12:43:41.695Z,3.20
2017-12-10T12:48:43.547Z,2.70
2017-12-10T12:53:45.486Z,3.80
2017-12-10T12:58:47.351Z,4.63
2017-12-10T13:03:49.900Z,2.77
2017-12-10T13:08:52.587Z,2.20
2017-12-10T13:13:55.089Z,2.70
2017-12-10T13:18:56.868Z,2.27
2017-12-10T13:23:58.630Z,3.17
2017-12-10T13:29:00.564Z,3.53
2017-12-10T13:34:04.663Z,2.96
2017-12-10T13:39:06.449Z,2.70
2017-12-10T13:44:08.994Z,2.90
2017-12-10T13:49:10.799Z,2.40
2017-12-10T13:54:12.621Z,2.17
2017-12-10T13:59:14.654Z,2.03
2017-12-10T14:04:17.709Z,2.00
2017-12-10T14:09:19.606Z,5.73
2017-12-10T14:14:21.995Z,2.50
2017-12-10T14:19:24.697Z,2.10
2017-12-10T14:24:26.466Z,2.07
2017-12-10T14:29:29.199Z,4.00
2017-12-10T14:34:30.987Z,2.70
2017-12-10T14:39:32.784Z,2.20
2017-12-10T14:44:34.571Z,5.90
2017-12-10T14:49:36.397Z,4.97
2017-12-10T14:54:38.813Z,3.20
2017-12-10T14:59:40.632Z,2.97
2017-12-10T15:04:49.386Z,3.33
2017-12-10T15:09:51.194Z,2.37
2017-12-10T15:14:53.004Z,2.13
2017-12-10T15:19:54.786Z,2.57
2017-12-10T15:24:56.635Z,2.43
2017-12-10T15:29:58.444Z,3.20
2017-12-10T15:35:00.953Z,3.73
2017-12-10T15:40:02.779Z,2.53
2017-12-10T15:45:10.564Z,2.17
2017-12-10T15:50:12.319Z,3.60
2017-12-10T15:55:14.153Z,5.53
2017-12-10T16:00:15.930Z,3.00
2017-12-10T16:05:17.716Z,3.03
2017-12-10T16:10:20.257Z,2.60
2017-12-10T16:15:22.065Z,4.60
2017-12-10T16:20:23.826Z,2.87
2017-12-10T16:25:25.600Z,3.03
2017-12-10T16:30:27.398Z,2.70
2017-12-10T16:35:29.175Z,3.53
2017-12-10T16:40:31.045Z,3.00
2017-12-10T16:45:32.831Z,2.80
2017-12-10T16:50:35.677Z,4.97
2017-12-10T16:55:38.185Z,16.90
2017-12-10T17:00:41.396Z,2.90
2017-12-10T17:05:43.914Z,2.50
2017-12-10T17:10:45.727Z,7.97
2017-12-10T17:15:48.322Z,12.10
2017-12-10T17:20:50.199Z,4.17
2017-12-10T17:25:52.028Z,3.93
2017-12-10T17:30:53.779Z,8.20
2017-12-10T17:35:55.570Z,4.60
2017-12-10T17:40:57.319Z,5.27
2017-12-10T17:45:59.587Z,4.13
2017-12-10T17:51:01.429Z,4.60
2017-12-10T17:56:03.369Z,3.57
2017-12-10T18:01:05.984Z,3.70
2017-12-10T18:06:07.892Z,3.47
2017-12-10T18:11:10.438Z,3.10
2017-12-10T18:16:12.226Z,2.63
2017-12-10T18:21:14.050Z,4.50
2017-12-10T18:26:15.949Z,4.77
2017-12-10T18:31:17.737Z,5.27
2017-12-10T18:36:19.496Z,4.20
2017-12-10T18:41:21.323Z,4.00
2017-12-10T18:46:23.099Z,4.70
2017-12-10T18:51:25.446Z,4.50
2017-12-10T18:56:27.255Z,4.03
2017-12-10T19:01:29.033Z,3.80
2017-12-10T19:06:30.997Z,4.00
2017-12-10T19:11:33.267Z,4.57
2017-12-10T19:16:35.076Z,4.23
2017-12-10T19:21:36.944Z,4.77
2017-12-10T19:26:42.517Z,5.10
2017-12-10T19:31:45.546Z,6.33
2017-12-10T19:36:47.506Z,5.80
2017-12-10T19:41:49.342Z,6.10
2017-12-10T19:46:51.113Z,6.20
2017-12-10T19:51:53.044Z,7.70
2017-12-10T19:56:54.842Z,7.80
2017-12-10T20:01:56.590Z,8.27
2017-12-10T20:06:58.386Z,6.40
2017-12-10T20:12:00.324Z,9.20
2017-12-10T20:17:02.142Z,11.30
2017-12-10T20:22:03.998Z,9.10
2017-12-10T20:27:05.815Z,10.07
2017-12-10T20:32:07.980Z,8.60
2017-12-10T20:37:09.825Z,13.20
2017-12-10T20:42:11.606Z,9.57
2017-12-10T20:47:13.425Z,5.00
2017-12-10T20:52:15.315Z,4.33
2017-12-10T20:57:17.298Z,4.37
2017-12-10T21:02:19.084Z,4.20
2017-12-10T21:07:21.663Z,3.77
2017-12-10T21:12:23.533Z,3.90
2017-12-10T21:17:25.331Z,4.30
2017-12-10T21:22:27.127Z,3.10
2017-12-10T21:27:28.934Z,4.20
2017-12-10T21:32:30.949Z,3.97
2017-12-10T21:37:32.807Z,4.13
2017-12-10T21:42:34.668Z,3.70
2017-12-10T21:47:36.674Z,2.83
2017-12-10T21:52:38.519Z,2.27
2017-12-10T21:57:41.399Z,2.07
2017-12-10T22:02:43.189Z,2.00
2017-12-10T22:07:45.020Z,2.03
2017-12-10T22:12:46.768Z,1.87
2017-12-10T22:17:48.862Z,1.63
2017-12-10T22:22:50.700Z,2.20
2017-12-10T22:27:52.525Z,2.60
2017-12-10T22:32:54.341Z,1.20
2017-12-10T22:37:56.159Z,1.77
2017-12-10T22:42:58.278Z,1.10
2017-12-10T22:48:01.524Z,1.50
2017-12-10T22:53:03.856Z,2.10
2017-12-10T22:58:06.316Z,2.40
2017-12-10T23:03:08.092Z,2.93
2017-12-10T23:08:09.874Z,3.07
2017-12-10T23:13:11.634Z,3.30
2017-12-10T23:18:13.507Z,3.77
2017-12-10T23:23:15.295Z,4.23
2017-12-10T23:28:17.044Z,4.13
2017-12-10T23:33:19.559Z,4.20
2017-12-10T23:38:21.405Z,4.67
2017-12-10T23:43:23.889Z,4.67
2017-12-10T23:48:25.738Z,4.93
2017-12-10T23:53:27.541Z,4.77
2017-12-10T23:58:29.280Z,5.63
